McVille, ND (58254)

3:17 AM CDT on March 29, 2015 (GMT -0500)
Grand Forks Air Force Base | | Change Station
CLOSE
Current Station
Airport
Location: Grand Forks AFB,
Elevation: 912 ft
Nearby Weather Stations
Active Advisory: Wind Advisory

Elev 912 ft 47.96 °N, 97.40 °W | Updated 19 minutes ago

Overcast
Overcast
43 °F
Feels Like 36 °F
N
15
Wind Variable Wind from SW
Gusts 20 mph

Today
High -- | Low -- °F
--% Chance of Precip.
Yesterday
High -- | Low -- °F
Precip. -- in
7:17 AM 7:58 PM
Waxing Gibbous, 69% visible
Pressure 29.45 in
Visibility 10.0 miles
Clouds Mostly Cloudy 2100 ft
Overcast 7000 ft
Windchill 36 °F
Dew Point 39 °F
Humidity 85%
Rainfall 0.08 in
Snow Depth Not available.
UV 0 out of 12
Pollen 2.10 out of 12
Air Quality Not available.
Flu Activity Not available.
METAR KRDR 290758Z AUTO 23013G17KT 10SM BKN021 OVC070 06/04 A2942 RMK AO2 PK WND 20027/35 SLP973 T00620038

More Conditions Fewer Conditions

Pressure 29.45 in
Visibility 10.0 miles
Clouds Mostly Cloudy 2100 ft
Overcast 7000 ft
Windchill 36 °F
Dew Point 39 °F
Humidity 85%
Rainfall 0.08 in
Snow Depth Not available.
UV 0 out of 12
Pollen 2.10 out of 12
Air Quality Not available.
Flu Activity Not available.
METAR KRDR 290758Z AUTO 23013G17KT 10SM BKN021 OVC070 06/04 A2942 RMK AO2 PK WND 20027/35 SLP973 T00620038

More Conditions Fewer Conditions

10-Day Weather Forecast

Almanac

Astronomy

Mar. 29, 2015 Rise Set
Actual Time
Civil Twilight
Nautical Twilight
Astronomical Twilight
Moon
Length of Visible Light
Length of Day
Tomorrow will be .
, % of the Moon is Illuminated

Today's Extremes

State Highs State Lows

Community

WunderPhotos

Upload Photos

1,809,187 photos uploaded!

WunderBlogs® & News

Nearby

Air Quality

  Air Quality AQ Index Pollutant
Not available.

Snow Depth

Station Depth Elevation

Earthquake Activity

City Distance Mag. Time & Date
Minimum magnitude displayed is 2.5.

Coastal Water Temperatures

Place Temperature

Stations

Nearby Weather Stations

Station Location Temp. Windchill Dew Point Humidity Wind Precip. Elev Updated Type
                   
Wind Advisory
Statement as of 3:33 PM CDT on March 28, 2015

... Wind Advisory in effect from 7 am to 7 PM CDT Sunday...

The National Weather Service in Grand Forks has issued a Wind
Advisory... which is in effect from 7 am to 7 PM CDT Sunday.

* Timing... towards sunrise in the Devils Lake region spreading east
during the morning.

* Winds... northwest 25 to 35 mph with higher gusts.

* Impacts... waves of 4 to 6 feet may be generated in the Devils
Lake basin and result in roadbed erosion in susceptible areas.

Precautionary/preparedness actions...

A Wind Advisory means that sustained winds of 30 mph or frequent
gusts to 45 mph are expected. Winds this strong can make driving
difficult... especially for high profile vehicles. Use extra
caution.